sensor_id;sensor_type;location;lat;lon;timestamp;P1;durP1;ratioP1;P2;durP2;ratioP2
32810;SDS011;65470;47.324;8.548;2023-03-19T00:01:05;9.75;;;5.93;;
32810;SDS011;65470;47.324;8.548;2023-03-19T00:03:32;8.80;;;5.03;;
32810;SDS011;65470;47.324;8.548;2023-03-19T00:05:58;7.72;;;5.07;;
32810;SDS011;65470;47.324;8.548;2023-03-19T00:08:25;10.82;;;6.50;;
32810;SDS011;65470;47.324;8.548;2023-03-19T00:10:51;8.40;;;5.00;;
32810;SDS011;65470;47.324;8.548;2023-03-19T00:13:17;7.68;;;4.93;;
32810;SDS011;65470;47.324;8.548;2023-03-19T00:15:43;11.77;;;5.65;;
32810;SDS011;65470;47.324;8.548;2023-03-19T00:18:08;10.63;;;5.20;;
32810;SDS011;65470;47.324;8.548;2023-03-19T00:20:34;10.00;;;5.53;;
32810;SDS011;65470;47.324;8.548;2023-03-19T00:23:00;9.13;;;5.68;;
32810;SDS011;65470;47.324;8.548;2023-03-19T00:25:25;9.07;;;5.47;;
32810;SDS011;65470;47.324;8.548;2023-03-19T00:27:51;9.25;;;5.70;;
32810;SDS011;65470;47.324;8.548;2023-03-19T00:30:19;14.45;;;6.85;;
32810;SDS011;65470;47.324;8.548;2023-03-19T00:32:45;8.15;;;5.22;;
32810;SDS011;65470;47.324;8.548;2023-03-19T00:35:12;10.25;;;5.65;;
32810;SDS011;65470;47.324;8.548;2023-03-19T00:37:38;11.13;;;6.45;;
32810;SDS011;65470;47.324;8.548;2023-03-19T00:40:04;8.68;;;6.47;;
32810;SDS011;65470;47.324;8.548;2023-03-19T00:42:30;13.10;;;6.68;;
32810;SDS011;65470;47.324;8.548;2023-03-19T00:44:56;8.20;;;5.60;;
32810;SDS011;65470;47.324;8.548;2023-03-19T00:47:22;11.43;;;7.05;;
32810;SDS011;65470;47.324;8.548;2023-03-19T00:49:48;9.10;;;5.80;;
32810;SDS011;65470;47.324;8.548;2023-03-19T00:52:13;9.70;;;5.43;;
32810;SDS011;65470;47.324;8.548;2023-03-19T00:54:39;9.20;;;5.90;;
32810;SDS011;65470;47.324;8.548;2023-03-19T00:57:06;12.70;;;6.63;;
32810;SDS011;65470;47.324;8.548;2023-03-19T00:59:32;8.65;;;5.80;;
32810;SDS011;65470;47.324;8.548;2023-03-19T01:01:57;11.40;;;5.57;;
32810;SDS011;65470;47.324;8.548;2023-03-19T01:04:23;9.85;;;6.05;;
32810;SDS011;65470;47.324;8.548;2023-03-19T01:06:49;7.38;;;5.18;;
32810;SDS011;65470;47.324;8.548;2023-03-19T01:09:15;8.00;;;6.10;;
32810;SDS011;65470;47.324;8.548;2023-03-19T01:11:41;9.82;;;5.78;;
32810;SDS011;65470;47.324;8.548;2023-03-19T01:14:06;11.02;;;7.15;;
32810;SDS011;65470;47.324;8.548;2023-03-19T01:16:32;10.23;;;6.53;;
32810;SDS011;65470;47.324;8.548;2023-03-19T01:18:59;11.38;;;7.55;;
32810;SDS011;65470;47.324;8.548;2023-03-19T01:21:25;11.63;;;6.85;;
32810;SDS011;65470;47.324;8.548;2023-03-19T01:23:51;11.85;;;7.13;;
32810;SDS011;65470;47.324;8.548;2023-03-19T01:26:17;14.63;;;7.55;;
32810;SDS011;65470;47.324;8.548;2023-03-19T01:28:43;12.32;;;6.97;;
32810;SDS011;65470;47.324;8.548;2023-03-19T01:31:09;11.50;;;7.18;;
32810;SDS011;65470;47.324;8.548;2023-03-19T01:33:35;16.17;;;6.97;;
32810;SDS011;65470;47.324;8.548;2023-03-19T01:36:01;12.23;;;7.00;;
32810;SDS011;65470;47.324;8.548;2023-03-19T01:38:28;13.07;;;7.80;;
32810;SDS011;65470;47.324;8.548;2023-03-19T01:40:54;10.07;;;6.45;;
32810;SDS011;65470;47.324;8.548;2023-03-19T01:43:22;18.70;;;7.43;;
32810;SDS011;65470;47.324;8.548;2023-03-19T01:45:50;11.82;;;6.63;;
32810;SDS011;65470;47.324;8.548;2023-03-19T01:48:23;11.13;;;6.82;;
32810;SDS011;65470;47.324;8.548;2023-03-19T01:51:03;12.57;;;6.65;;
32810;SDS011;65470;47.324;8.548;2023-03-19T01:53:31;11.60;;;6.85;;
32810;SDS011;65470;47.324;8.548;2023-03-19T01:56:08;13.70;;;7.43;;
32810;SDS011;65470;47.324;8.548;2023-03-19T01:58:39;12.80;;;7.13;;
32810;SDS011;65470;47.324;8.548;2023-03-19T02:01:07;10.85;;;7.30;;
32810;SDS011;65470;47.324;8.548;2023-03-19T02:03:33;10.50;;;6.85;;
32810;SDS011;65470;47.324;8.548;2023-03-19T02:06:01;13.65;;;7.75;;
32810;SDS011;65470;47.324;8.548;2023-03-19T02:08:27;13.32;;;7.63;;
32810;SDS011;65470;47.324;8.548;2023-03-19T02:10:53;11.50;;;6.65;;
32810;SDS011;65470;47.324;8.548;2023-03-19T02:13:20;10.90;;;7.45;;
32810;SDS011;65470;47.324;8.548;2023-03-19T02:15:47;13.60;;;6.60;;
32810;SDS011;65470;47.324;8.548;2023-03-19T02:18:13;11.77;;;6.90;;
32810;SDS011;65470;47.324;8.548;2023-03-19T02:26:18;12.52;;;6.93;;
32810;SDS011;65470;47.324;8.548;2023-03-19T02:28:46;9.85;;;6.20;;
32810;SDS011;65470;47.324;8.548;2023-03-19T02:31:14;7.93;;;6.00;;
32810;SDS011;65470;47.324;8.548;2023-03-19T02:33:40;9.18;;;5.93;;
32810;SDS011;65470;47.324;8.548;2023-03-19T02:36:12;9.75;;;6.20;;
32810;SDS011;65470;47.324;8.548;2023-03-19T02:38:41;11.88;;;7.00;;
32810;SDS011;65470;47.324;8.548;2023-03-19T02:41:09;11.85;;;6.57;;
32810;SDS011;65470;47.324;8.548;2023-03-19T02:43:36;10.70;;;6.57;;
32810;SDS011;65470;47.324;8.548;2023-03-19T02:46:03;7.80;;;5.63;;
32810;SDS011;65470;47.324;8.548;2023-03-19T02:48:33;9.45;;;6.25;;
32810;SDS011;65470;47.324;8.548;2023-03-19T02:51:00;9.23;;;5.45;;
32810;SDS011;65470;47.324;8.548;2023-03-19T02:53:26;8.70;;;5.47;;
32810;SDS011;65470;47.324;8.548;2023-03-19T02:55:51;10.48;;;5.78;;
32810;SDS011;65470;47.324;8.548;2023-03-19T02:58:17;10.63;;;6.35;;
32810;SDS011;65470;47.324;8.548;2023-03-19T03:04:05;8.52;;;4.80;;
32810;SDS011;65470;47.324;8.548;2023-03-19T03:06:31;11.50;;;5.72;;
32810;SDS011;65470;47.324;8.548;2023-03-19T03:08:57;7.38;;;5.53;;
32810;SDS011;65470;47.324;8.548;2023-03-19T03:11:22;9.93;;;6.18;;
32810;SDS011;65470;47.324;8.548;2023-03-19T03:13:48;7.97;;;5.68;;
32810;SDS011;65470;47.324;8.548;2023-03-19T03:16:14;9.25;;;5.60;;
32810;SDS011;65470;47.324;8.548;2023-03-19T03:18:39;10.25;;;5.68;;
32810;SDS011;65470;47.324;8.548;2023-03-19T03:21:05;10.27;;;5.43;;
32810;SDS011;65470;47.324;8.548;2023-03-19T03:23:31;8.10;;;4.95;;
32810;SDS011;65470;47.324;8.548;2023-03-19T03:25:56;8.00;;;5.40;;
32810;SDS011;65470;47.324;8.548;2023-03-19T03:28:22;10.23;;;5.40;;
32810;SDS011;65470;47.324;8.548;2023-03-19T03:30:48;9.23;;;5.32;;
32810;SDS011;65470;47.324;8.548;2023-03-19T03:33:14;8.48;;;4.72;;
32810;SDS011;65470;47.324;8.548;2023-03-19T03:35:41;11.68;;;4.78;;
32810;SDS011;65470;47.324;8.548;2023-03-19T03:38:07;7.30;;;4.93;;
32810;SDS011;65470;47.324;8.548;2023-03-19T03:40:32;8.43;;;5.07;;
32810;SDS011;65470;47.324;8.548;2023-03-19T03:42:58;6.03;;;4.32;;
32810;SDS011;65470;47.324;8.548;2023-03-19T03:45:25;8.32;;;4.28;;
32810;SDS011;65470;47.324;8.548;2023-03-19T03:47:51;7.25;;;4.80;;
32810;SDS011;65470;47.324;8.548;2023-03-19T03:50:16;8.60;;;5.40;;
32810;SDS011;65470;47.324;8.548;2023-03-19T03:52:42;8.90;;;4.68;;
32810;SDS011;65470;47.324;8.548;2023-03-19T03:55:08;7.68;;;4.68;;
32810;SDS011;65470;47.324;8.548;2023-03-19T03:57:34;11.48;;;4.95;;
32810;SDS011;65470;47.324;8.548;2023-03-19T04:00:00;8.15;;;4.68;;
32810;SDS011;65470;47.324;8.548;2023-03-19T04:02:25;8.88;;;4.55;;
32810;SDS011;65470;47.324;8.548;2023-03-19T04:04:52;7.63;;;4.60;;
32810;SDS011;65470;47.324;8.548;2023-03-19T04:07:18;12.35;;;6.03;;
32810;SDS011;65470;47.324;8.548;2023-03-19T04:09:44;7.43;;;4.60;;
32810;SDS011;65470;47.324;8.548;2023-03-19T04:12:10;6.80;;;4.82;;
32810;SDS011;65470;47.324;8.548;2023-03-19T04:14:37;8.80;;;4.97;;
32810;SDS011;65470;47.324;8.548;2023-03-19T04:17:03;8.13;;;4.68;;
32810;SDS011;65470;47.324;8.548;2023-03-19T04:19:29;8.48;;;5.20;;
32810;SDS011;65470;47.324;8.548;2023-03-19T04:21:55;8.80;;;5.13;;
32810;SDS011;65470;47.324;8.548;2023-03-19T04:24:21;7.82;;;4.88;;
32810;SDS011;65470;47.324;8.548;2023-03-19T04:26:47;9.25;;;5.40;;
32810;SDS011;65470;47.324;8.548;2023-03-19T04:29:14;8.02;;;4.95;;
32810;SDS011;65470;47.324;8.548;2023-03-19T04:31:39;10.23;;;4.63;;
32810;SDS011;65470;47.324;8.548;2023-03-19T04:34:05;8.27;;;4.97;;
32810;SDS011;65470;47.324;8.548;2023-03-19T04:36:31;10.55;;;5.53;;
32810;SDS011;65470;47.324;8.548;2023-03-19T04:38:57;8.77;;;4.72;;
32810;SDS011;65470;47.324;8.548;2023-03-19T04:41:23;9.68;;;5.10;;
32810;SDS011;65470;47.324;8.548;2023-03-19T04:43:49;8.05;;;5.00;;
32810;SDS011;65470;47.324;8.548;2023-03-19T04:46:15;7.03;;;4.43;;
32810;SDS011;65470;47.324;8.548;2023-03-19T04:48:41;8.73;;;4.90;;
32810;SDS011;65470;47.324;8.548;2023-03-19T04:51:07;6.43;;;4.57;;
32810;SDS011;65470;47.324;8.548;2023-03-19T04:53:33;9.48;;;4.75;;
32810;SDS011;65470;47.324;8.548;2023-03-19T04:56:00;8.85;;;4.50;;
32810;SDS011;65470;47.324;8.548;2023-03-19T04:58:26;5.75;;;4.28;;
32810;SDS011;65470;47.324;8.548;2023-03-19T05:00:52;9.55;;;4.78;;
32810;SDS011;65470;47.324;8.548;2023-03-19T05:03:17;9.02;;;4.20;;
32810;SDS011;65470;47.324;8.548;2023-03-19T05:05:43;7.80;;;4.57;;
32810;SDS011;65470;47.324;8.548;2023-03-19T05:08:09;7.88;;;4.55;;
32810;SDS011;65470;47.324;8.548;2023-03-19T05:10:35;9.05;;;4.00;;
32810;SDS011;65470;47.324;8.548;2023-03-19T05:13:01;6.15;;;3.97;;
32810;SDS011;65470;47.324;8.548;2023-03-19T05:15:27;6.28;;;4.13;;
32810;SDS011;65470;47.324;8.548;2023-03-19T05:17:53;6.90;;;4.32;;
32810;SDS011;65470;47.324;8.548;2023-03-19T05:20:18;5.68;;;4.00;;
32810;SDS011;65470;47.324;8.548;2023-03-19T05:22:44;9.85;;;4.30;;
32810;SDS011;65470;47.324;8.548;2023-03-19T05:25:10;9.38;;;4.40;;
32810;SDS011;65470;47.324;8.548;2023-03-19T05:27:37;8.60;;;4.20;;
32810;SDS011;65470;47.324;8.548;2023-03-19T05:30:03;7.45;;;4.03;;
32810;SDS011;65470;47.324;8.548;2023-03-19T05:32:30;4.93;;;3.67;;
32810;SDS011;65470;47.324;8.548;2023-03-19T05:34:56;6.57;;;3.92;;
32810;SDS011;65470;47.324;8.548;2023-03-19T05:37:22;7.10;;;4.15;;
32810;SDS011;65470;47.324;8.548;2023-03-19T05:39:48;7.43;;;4.10;;
32810;SDS011;65470;47.324;8.548;2023-03-19T05:42:14;6.38;;;3.97;;
32810;SDS011;65470;47.324;8.548;2023-03-19T05:44:40;4.63;;;3.65;;
32810;SDS011;65470;47.324;8.548;2023-03-19T05:47:06;6.20;;;3.50;;
32810;SDS011;65470;47.324;8.548;2023-03-19T05:49:32;6.97;;;3.42;;
32810;SDS011;65470;47.324;8.548;2023-03-19T05:51:58;8.63;;;4.22;;
32810;SDS011;65470;47.324;8.548;2023-03-19T05:54:24;6.20;;;3.85;;
32810;SDS011;65470;47.324;8.548;2023-03-19T05:56:50;7.70;;;3.78;;
32810;SDS011;65470;47.324;8.548;2023-03-19T05:59:15;4.65;;;3.58;;
32810;SDS011;65470;47.324;8.548;2023-03-19T06:01:41;6.38;;;3.58;;
32810;SDS011;65470;47.324;8.548;2023-03-19T06:04:07;6.70;;;3.83;;
32810;SDS011;65470;47.324;8.548;2023-03-19T06:06:32;7.20;;;3.90;;
32810;SDS011;65470;47.324;8.548;2023-03-19T06:08:58;6.07;;;2.80;;
32810;SDS011;65470;47.324;8.548;2023-03-19T06:11:23;5.70;;;3.20;;
32810;SDS011;65470;47.324;8.548;2023-03-19T06:13:49;9.60;;;4.28;;
32810;SDS011;65470;47.324;8.548;2023-03-19T06:16:15;6.70;;;3.75;;
32810;SDS011;65470;47.324;8.548;2023-03-19T06:18:41;9.32;;;3.88;;
32810;SDS011;65470;47.324;8.548;2023-03-19T06:21:07;6.72;;;3.20;;
32810;SDS011;65470;47.324;8.548;2023-03-19T06:23:32;6.07;;;3.50;;
32810;SDS011;65470;47.324;8.548;2023-03-19T06:25:58;5.82;;;3.28;;
32810;SDS011;65470;47.324;8.548;2023-03-19T06:28:23;4.90;;;3.20;;
32810;SDS011;65470;47.324;8.548;2023-03-19T06:30:49;8.80;;;3.60;;
32810;SDS011;65470;47.324;8.548;2023-03-19T06:33:15;10.35;;;3.95;;
32810;SDS011;65470;47.324;8.548;2023-03-19T06:35:40;6.68;;;3.17;;
32810;SDS011;65470;47.324;8.548;2023-03-19T06:38:06;5.53;;;3.67;;
32810;SDS011;65470;47.324;8.548;2023-03-19T06:40:32;23.40;;;4.10;;
32810;SDS011;65470;47.324;8.548;2023-03-19T06:42:58;9.23;;;3.42;;
32810;SDS011;65470;47.324;8.548;2023-03-19T06:45:23;6.45;;;3.60;;
32810;SDS011;65470;47.324;8.548;2023-03-19T06:47:49;5.55;;;3.50;;
32810;SDS011;65470;47.324;8.548;2023-03-19T06:50:15;4.72;;;3.47;;
32810;SDS011;65470;47.324;8.548;2023-03-19T06:52:41;7.38;;;3.78;;
32810;SDS011;65470;47.324;8.548;2023-03-19T06:55:08;5.28;;;3.50;;
32810;SDS011;65470;47.324;8.548;2023-03-19T06:57:34;10.43;;;4.45;;
32810;SDS011;65470;47.324;8.548;2023-03-19T06:59:59;8.48;;;4.82;;
32810;SDS011;65470;47.324;8.548;2023-03-19T07:02:25;8.13;;;4.15;;
32810;SDS011;65470;47.324;8.548;2023-03-19T07:04:51;7.88;;;4.40;;
32810;SDS011;65470;47.324;8.548;2023-03-19T07:07:17;6.75;;;4.40;;
32810;SDS011;65470;47.324;8.548;2023-03-19T07:09:43;9.95;;;5.40;;
32810;SDS011;65470;47.324;8.548;2023-03-19T07:12:08;12.45;;;5.85;;
32810;SDS011;65470;47.324;8.548;2023-03-19T07:14:34;8.35;;;5.05;;
32810;SDS011;65470;47.324;8.548;2023-03-19T07:17:00;8.95;;;4.75;;
32810;SDS011;65470;47.324;8.548;2023-03-19T07:19:26;7.10;;;4.93;;
32810;SDS011;65470;47.324;8.548;2023-03-19T07:21:51;10.27;;;5.43;;
32810;SDS011;65470;47.324;8.548;2023-03-19T07:24:17;6.68;;;4.32;;
32810;SDS011;65470;47.324;8.548;2023-03-19T07:26:43;8.13;;;4.80;;
32810;SDS011;65470;47.324;8.548;2023-03-19T07:29:08;8.25;;;4.78;;
32810;SDS011;65470;47.324;8.548;2023-03-19T07:31:35;9.00;;;5.20;;
32810;SDS011;65470;47.324;8.548;2023-03-19T07:34:00;10.13;;;4.53;;
32810;SDS011;65470;47.324;8.548;2023-03-19T07:36:26;8.00;;;4.93;;
32810;SDS011;65470;47.324;8.548;2023-03-19T07:38:52;7.60;;;4.55;;
32810;SDS011;65470;47.324;8.548;2023-03-19T07:41:17;8.35;;;5.10;;
32810;SDS011;65470;47.324;8.548;2023-03-19T07:43:43;6.32;;;4.78;;
32810;SDS011;65470;47.324;8.548;2023-03-19T07:46:09;9.80;;;4.85;;
32810;SDS011;65470;47.324;8.548;2023-03-19T07:48:35;7.75;;;5.07;;
32810;SDS011;65470;47.324;8.548;2023-03-19T07:51:01;8.35;;;5.10;;
32810;SDS011;65470;47.324;8.548;2023-03-19T07:53:26;6.43;;;5.03;;
32810;SDS011;65470;47.324;8.548;2023-03-19T07:55:52;9.10;;;4.80;;
32810;SDS011;65470;47.324;8.548;2023-03-19T07:58:17;8.52;;;5.18;;
32810;SDS011;65470;47.324;8.548;2023-03-19T08:00:43;8.18;;;5.13;;
32810;SDS011;65470;47.324;8.548;2023-03-19T08:03:09;8.27;;;4.80;;
32810;SDS011;65470;47.324;8.548;2023-03-19T08:05:35;8.45;;;5.00;;
32810;SDS011;65470;47.324;8.548;2023-03-19T08:08:00;9.40;;;4.80;;
32810;SDS011;65470;47.324;8.548;2023-03-19T08:10:26;6.72;;;4.18;;
32810;SDS011;65470;47.324;8.548;2023-03-19T08:12:52;10.00;;;4.20;;
32810;SDS011;65470;47.324;8.548;2023-03-19T08:15:18;8.63;;;4.78;;
32810;SDS011;65470;47.324;8.548;2023-03-19T08:17:43;8.30;;;5.10;;
32810;SDS011;65470;47.324;8.548;2023-03-19T08:20:10;7.00;;;4.65;;
32810;SDS011;65470;47.324;8.548;2023-03-19T08:22:37;8.27;;;4.95;;
32810;SDS011;65470;47.324;8.548;2023-03-19T08:25:03;9.60;;;5.30;;
32810;SDS011;65470;47.324;8.548;2023-03-19T08:27:30;9.20;;;4.60;;
32810;SDS011;65470;47.324;8.548;2023-03-19T08:29:59;8.13;;;5.03;;
32810;SDS011;65470;47.324;8.548;2023-03-19T08:32:25;5.80;;;4.55;;
32810;SDS011;65470;47.324;8.548;2023-03-19T08:34:51;5.55;;;3.78;;
32810;SDS011;65470;47.324;8.548;2023-03-19T08:37:17;6.68;;;4.30;;
32810;SDS011;65470;47.324;8.548;2023-03-19T08:39:43;6.57;;;4.15;;
32810;SDS011;65470;47.324;8.548;2023-03-19T08:42:08;6.85;;;4.45;;
32810;SDS011;65470;47.324;8.548;2023-03-19T08:44:34;8.43;;;3.97;;
32810;SDS011;65470;47.324;8.548;2023-03-19T08:47:00;10.27;;;4.65;;
32810;SDS011;65470;47.324;8.548;2023-03-19T08:49:25;5.93;;;4.28;;
32810;SDS011;65470;47.324;8.548;2023-03-19T08:51:51;5.43;;;3.95;;
32810;SDS011;65470;47.324;8.548;2023-03-19T08:54:17;5.93;;;4.00;;
32810;SDS011;65470;47.324;8.548;2023-03-19T08:56:42;6.93;;;3.80;;
32810;SDS011;65470;47.324;8.548;2023-03-19T08:59:08;6.85;;;3.95;;
32810;SDS011;65470;47.324;8.548;2023-03-19T09:01:34;8.32;;;3.50;;
32810;SDS011;65470;47.324;8.548;2023-03-19T09:04:00;8.13;;;3.58;;
32810;SDS011;65470;47.324;8.548;2023-03-19T09:06:26;5.40;;;3.70;;
32810;SDS011;65470;47.324;8.548;2023-03-19T09:08:51;5.88;;;3.72;;
32810;SDS011;65470;47.324;8.548;2023-03-19T09:11:17;6.97;;;3.72;;
32810;SDS011;65470;47.324;8.548;2023-03-19T09:13:43;6.93;;;3.28;;
32810;SDS011;65470;47.324;8.548;2023-03-19T09:16:08;5.47;;;3.00;;
32810;SDS011;65470;47.324;8.548;2023-03-19T09:18:34;7.32;;;3.40;;
32810;SDS011;65470;47.324;8.548;2023-03-19T09:21:00;5.18;;;2.75;;
32810;SDS011;65470;47.324;8.548;2023-03-19T09:23:26;5.78;;;3.35;;
32810;SDS011;65470;47.324;8.548;2023-03-19T09:25:52;6.53;;;3.58;;
32810;SDS011;65470;47.324;8.548;2023-03-19T09:28:18;4.25;;;3.00;;
32810;SDS011;65470;47.324;8.548;2023-03-19T09:30:44;4.70;;;2.85;;
32810;SDS011;65470;47.324;8.548;2023-03-19T09:33:11;4.75;;;3.25;;
32810;SDS011;65470;47.324;8.548;2023-03-19T09:35:37;6.10;;;3.13;;
32810;SDS011;65470;47.324;8.548;2023-03-19T09:38:03;4.93;;;3.30;;
32810;SDS011;65470;47.324;8.548;2023-03-19T09:40:43;6.65;;;3.95;;
32810;SDS011;65470;47.324;8.548;2023-03-19T09:43:38;5.53;;;3.30;;
32810;SDS011;65470;47.324;8.548;2023-03-19T09:46:17;5.68;;;3.22;;
32810;SDS011;65470;47.324;8.548;2023-03-19T09:48:59;7.25;;;3.55;;
32810;SDS011;65470;47.324;8.548;2023-03-19T09:51:38;3.78;;;2.63;;
32810;SDS011;65470;47.324;8.548;2023-03-19T09:54:38;4.20;;;3.10;;
32810;SDS011;65470;47.324;8.548;2023-03-19T09:57:12;5.78;;;2.97;;
32810;SDS011;65470;47.324;8.548;2023-03-19T09:59:39;6.03;;;2.92;;
32810;SDS011;65470;47.324;8.548;2023-03-19T10:05:17;5.60;;;2.83;;
32810;SDS011;65470;47.324;8.548;2023-03-19T10:15:32;4.63;;;2.70;;
32810;SDS011;65470;47.324;8.548;2023-03-19T10:18:20;3.40;;;2.60;;
32810;SDS011;65470;47.324;8.548;2023-03-19T10:23:40;5.53;;;2.70;;
32810;SDS011;65470;47.324;8.548;2023-03-19T10:26:14;3.60;;;2.70;;
32810;SDS011;65470;47.324;8.548;2023-03-19T10:28:43;5.15;;;2.78;;
32810;SDS011;65470;47.324;8.548;2023-03-19T10:34:33;4.93;;;3.10;;
32810;SDS011;65470;47.324;8.548;2023-03-19T10:39:37;3.28;;;2.38;;
32810;SDS011;65470;47.324;8.548;2023-03-19T10:44:51;3.83;;;2.08;;
32810;SDS011;65470;47.324;8.548;2023-03-19T10:47:25;7.75;;;2.85;;
32810;SDS011;65470;47.324;8.548;2023-03-19T10:49:51;5.70;;;2.60;;
32810;SDS011;65470;47.324;8.548;2023-03-19T10:52:23;4.65;;;2.72;;
32810;SDS011;65470;47.324;8.548;2023-03-19T10:54:54;6.22;;;2.63;;
32810;SDS011;65470;47.324;8.548;2023-03-19T10:57:27;3.22;;;2.50;;
32810;SDS011;65470;47.324;8.548;2023-03-19T10:59:54;5.05;;;2.60;;
32810;SDS011;65470;47.324;8.548;2023-03-19T11:02:23;4.55;;;2.88;;
32810;SDS011;65470;47.324;8.548;2023-03-19T11:05:05;3.45;;;2.55;;
32810;SDS011;65470;47.324;8.548;2023-03-19T11:07:37;6.68;;;2.75;;
32810;SDS011;65470;47.324;8.548;2023-03-19T11:10:03;5.88;;;2.75;;
32810;SDS011;65470;47.324;8.548;2023-03-19T11:12:37;6.75;;;2.55;;
32810;SDS011;65470;47.324;8.548;2023-03-19T11:15:03;4.18;;;2.70;;
32810;SDS011;65470;47.324;8.548;2023-03-19T11:17:46;3.90;;;2.42;;
32810;SDS011;65470;47.324;8.548;2023-03-19T11:23:02;5.03;;;3.47;;
32810;SDS011;65470;47.324;8.548;2023-03-19T11:25:54;5.50;;;3.33;;
32810;SDS011;65470;47.324;8.548;2023-03-19T11:28:20;3.78;;;2.70;;
32810;SDS011;65470;47.324;8.548;2023-03-19T11:37:00;4.00;;;2.67;;
32810;SDS011;65470;47.324;8.548;2023-03-19T11:55:53;5.68;;;2.72;;
32810;SDS011;65470;47.324;8.548;2023-03-19T12:04:30;5.10;;;2.70;;
32810;SDS011;65470;47.324;8.548;2023-03-19T12:13:11;4.57;;;2.63;;
32810;SDS011;65470;47.324;8.548;2023-03-19T12:34:32;5.45;;;2.85;;
32810;SDS011;65470;47.324;8.548;2023-03-19T12:40:36;5.75;;;3.83;;
32810;SDS011;65470;47.324;8.548;2023-03-19T12:42:58;5.63;;;3.60;;
32810;SDS011;65470;47.324;8.548;2023-03-19T12:45:31;5.38;;;3.20;;
32810;SDS011;65470;47.324;8.548;2023-03-19T12:48:22;6.43;;;3.85;;
32810;SDS011;65470;47.324;8.548;2023-03-19T12:51:03;5.50;;;3.22;;
32810;SDS011;65470;47.324;8.548;2023-03-19T12:53:46;7.25;;;3.17;;
32810;SDS011;65470;47.324;8.548;2023-03-19T12:56:20;4.85;;;3.63;;
32810;SDS011;65470;47.324;8.548;2023-03-19T12:58:53;5.68;;;3.45;;
32810;SDS011;65470;47.324;8.548;2023-03-19T13:01:28;6.43;;;3.92;;
32810;SDS011;65470;47.324;8.548;2023-03-19T13:09:57;5.93;;;4.13;;
32810;SDS011;65470;47.324;8.548;2023-03-19T13:12:30;9.05;;;4.28;;
32810;SDS011;65470;47.324;8.548;2023-03-19T13:20:19;5.78;;;3.83;;
32810;SDS011;65470;47.324;8.548;2023-03-19T13:23:00;5.80;;;3.95;;
32810;SDS011;65470;47.324;8.548;2023-03-19T13:25:39;4.82;;;4.15;;
32810;SDS011;65470;47.324;8.548;2023-03-19T13:28:10;7.97;;;3.65;;
32810;SDS011;65470;47.324;8.548;2023-03-19T13:30:56;8.38;;;4.15;;
32810;SDS011;65470;47.324;8.548;2023-03-19T13:33:24;7.18;;;3.85;;
32810;SDS011;65470;47.324;8.548;2023-03-19T13:35:49;7.07;;;3.60;;
32810;SDS011;65470;47.324;8.548;2023-03-19T13:38:20;7.20;;;4.20;;
32810;SDS011;65470;47.324;8.548;2023-03-19T13:40:57;7.68;;;4.47;;
32810;SDS011;65470;47.324;8.548;2023-03-19T13:45:53;6.25;;;4.25;;
32810;SDS011;65470;47.324;8.548;2023-03-19T13:48:50;9.13;;;4.70;;
32810;SDS011;65470;47.324;8.548;2023-03-19T13:59:32;6.80;;;4.55;;
32810;SDS011;65470;47.324;8.548;2023-03-19T14:04:49;9.65;;;5.40;;
32810;SDS011;65470;47.324;8.548;2023-03-19T14:07:22;5.95;;;4.97;;
32810;SDS011;65470;47.324;8.548;2023-03-19T14:17:53;7.28;;;5.63;;
32810;SDS011;65470;47.324;8.548;2023-03-19T14:20:26;8.63;;;5.80;;
32810;SDS011;65470;47.324;8.548;2023-03-19T14:23:28;8.25;;;5.70;;
32810;SDS011;65470;47.324;8.548;2023-03-19T14:28:56;7.93;;;6.25;;
32810;SDS011;65470;47.324;8.548;2023-03-19T14:31:33;10.70;;;6.05;;
32810;SDS011;65470;47.324;8.548;2023-03-19T14:39:43;6.07;;;4.93;;
32810;SDS011;65470;47.324;8.548;2023-03-19T14:53:59;8.10;;;3.58;;
32810;SDS011;65470;47.324;8.548;2023-03-19T14:56:51;4.88;;;3.40;;
32810;SDS011;65470;47.324;8.548;2023-03-19T14:59:16;5.82;;;3.97;;
32810;SDS011;65470;47.324;8.548;2023-03-19T15:01:43;6.72;;;3.88;;
32810;SDS011;65470;47.324;8.548;2023-03-19T15:04:14;5.75;;;3.72;;
32810;SDS011;65470;47.324;8.548;2023-03-19T15:06:46;5.55;;;3.15;;
32810;SDS011;65470;47.324;8.548;2023-03-19T15:09:24;4.20;;;2.70;;
32810;SDS011;65470;47.324;8.548;2023-03-19T15:11:59;3.10;;;2.40;;
32810;SDS011;65470;47.324;8.548;2023-03-19T15:17:20;3.10;;;2.63;;
32810;SDS011;65470;47.324;8.548;2023-03-19T15:19:49;4.63;;;2.83;;
32810;SDS011;65470;47.324;8.548;2023-03-19T15:24:46;5.45;;;3.50;;
32810;SDS011;65470;47.324;8.548;2023-03-19T15:27:22;4.97;;;3.35;;
32810;SDS011;65470;47.324;8.548;2023-03-19T15:29:50;5.88;;;3.88;;
32810;SDS011;65470;47.324;8.548;2023-03-19T15:35:11;5.38;;;3.75;;
32810;SDS011;65470;47.324;8.548;2023-03-19T15:37:43;4.85;;;3.67;;
32810;SDS011;65470;47.324;8.548;2023-03-19T15:40:13;5.47;;;3.95;;
32810;SDS011;65470;47.324;8.548;2023-03-19T15:42:42;5.82;;;3.95;;
32810;SDS011;65470;47.324;8.548;2023-03-19T15:45:12;3.92;;;3.50;;
32810;SDS011;65470;47.324;8.548;2023-03-19T15:47:43;7.05;;;4.22;;
32810;SDS011;65470;47.324;8.548;2023-03-19T15:50:30;5.85;;;3.78;;
32810;SDS011;65470;47.324;8.548;2023-03-19T15:53:01;5.55;;;3.95;;
32810;SDS011;65470;47.324;8.548;2023-03-19T15:55:33;4.45;;;3.38;;
32810;SDS011;65470;47.324;8.548;2023-03-19T15:58:02;4.55;;;3.85;;
32810;SDS011;65470;47.324;8.548;2023-03-19T16:00:34;4.88;;;4.28;;
32810;SDS011;65470;47.324;8.548;2023-03-19T16:03:00;6.18;;;4.72;;
32810;SDS011;65470;47.324;8.548;2023-03-19T16:05:29;7.38;;;5.32;;
32810;SDS011;65470;47.324;8.548;2023-03-19T16:08:00;7.10;;;4.93;;
32810;SDS011;65470;47.324;8.548;2023-03-19T16:10:35;5.97;;;4.72;;
32810;SDS011;65470;47.324;8.548;2023-03-19T16:13:17;5.72;;;4.88;;
32810;SDS011;65470;47.324;8.548;2023-03-19T16:15:52;8.82;;;5.35;;
32810;SDS011;65470;47.324;8.548;2023-03-19T16:21:00;5.03;;;4.40;;
32810;SDS011;65470;47.324;8.548;2023-03-19T16:23:33;7.20;;;4.50;;
32810;SDS011;65470;47.324;8.548;2023-03-19T16:26:04;8.60;;;5.57;;
32810;SDS011;65470;47.324;8.548;2023-03-19T16:28:41;7.28;;;5.53;;
32810;SDS011;65470;47.324;8.548;2023-03-19T16:31:21;5.53;;;4.85;;
32810;SDS011;65470;47.324;8.548;2023-03-19T16:34:00;5.68;;;5.15;;
32810;SDS011;65470;47.324;8.548;2023-03-19T16:36:30;6.38;;;4.82;;
32810;SDS011;65470;47.324;8.548;2023-03-19T16:38:58;5.68;;;5.07;;
32810;SDS011;65470;47.324;8.548;2023-03-19T16:41:45;5.70;;;4.85;;
32810;SDS011;65470;47.324;8.548;2023-03-19T16:44:38;5.78;;;4.95;;
32810;SDS011;65470;47.324;8.548;2023-03-19T16:47:12;5.38;;;4.88;;
32810;SDS011;65470;47.324;8.548;2023-03-19T16:49:39;5.88;;;4.88;;
32810;SDS011;65470;47.324;8.548;2023-03-19T16:52:05;6.60;;;4.70;;
32810;SDS011;65470;47.324;8.548;2023-03-19T16:54:37;8.57;;;5.43;;
32810;SDS011;65470;47.324;8.548;2023-03-19T16:57:02;6.40;;;5.57;;
32810;SDS011;65470;47.324;8.548;2023-03-19T16:59:28;7.05;;;5.55;;
32810;SDS011;65470;47.324;8.548;2023-03-19T17:01:55;7.45;;;5.00;;
32810;SDS011;65470;47.324;8.548;2023-03-19T17:04:21;7.03;;;5.63;;
32810;SDS011;65470;47.324;8.548;2023-03-19T17:06:48;7.00;;;5.47;;
32810;SDS011;65470;47.324;8.548;2023-03-19T17:09:14;5.05;;;4.55;;
32810;SDS011;65470;47.324;8.548;2023-03-19T17:11:41;5.95;;;5.35;;
32810;SDS011;65470;47.324;8.548;2023-03-19T17:14:11;6.90;;;5.63;;
32810;SDS011;65470;47.324;8.548;2023-03-19T17:16:41;5.55;;;4.97;;
32810;SDS011;65470;47.324;8.548;2023-03-19T17:19:16;6.10;;;5.40;;
32810;SDS011;65470;47.324;8.548;2023-03-19T17:21:43;6.90;;;5.95;;
32810;SDS011;65470;47.324;8.548;2023-03-19T17:24:20;5.50;;;4.93;;
32810;SDS011;65470;47.324;8.548;2023-03-19T17:26:50;6.05;;;4.93;;
32810;SDS011;65470;47.324;8.548;2023-03-19T17:29:17;7.07;;;5.57;;